createdAt,value
2023-05-18T00:02:21.446Z,98832.50
2023-05-18T00:04:48.121Z,98829.59
2023-05-18T00:07:14.559Z,98830.16
2023-05-18T00:09:41.206Z,98822.97
2023-05-18T00:12:07.499Z,98823.72
2023-05-18T00:14:33.947Z,98833.22
2023-05-18T00:17:00.226Z,98821.41
2023-05-18T00:19:26.585Z,98822.78
2023-05-18T00:21:52.911Z,98827.81
2023-05-18T00:24:19.209Z,98832.03
2023-05-18T00:26:45.486Z,98827.28
2023-05-18T00:29:12.904Z,98827.19
2023-05-18T00:31:39.319Z,98821.63
2023-05-18T00:34:08.400Z,98822.00
2023-05-18T00:36:34.980Z,98826.03
2023-05-18T00:39:05.353Z,98831.06
2023-05-18T00:41:31.760Z,98823.84
2023-05-18T00:43:58.245Z,98824.59
2023-05-18T00:46:24.659Z,98823.72
2023-05-18T00:48:50.955Z,98827.06
2023-05-18T00:51:17.238Z,98825.19
2023-05-18T00:53:44.216Z,98822.28
2023-05-18T00:56:10.673Z,98823.00
2023-05-18T00:58:36.935Z,98820.06
2023-05-18T01:01:03.738Z,98826.09
2023-05-18T01:03:30.030Z,98825.81
2023-05-18T01:05:56.405Z,98832.66
2023-05-18T01:08:22.670Z,98827.91
2023-05-18T01:10:49.053Z,98826.00
2023-05-18T01:13:15.366Z,98824.91
2023-05-18T01:15:41.600Z,98835.00
2023-05-18T01:18:07.994Z,98829.63
2023-05-18T01:20:34.248Z,98829.16
2023-05-18T01:23:00.476Z,98834.00
2023-05-18T01:25:26.819Z,98832.69
2023-05-18T01:27:53.181Z,98836.88
2023-05-18T01:30:19.416Z,98832.31
2023-05-18T01:32:45.711Z,98833.66
2023-05-18T01:35:12.001Z,98836.63
2023-05-18T01:37:38.243Z,98825.75
2023-05-18T01:40:04.493Z,98835.84
2023-05-18T01:42:30.718Z,98840.66
2023-05-18T01:44:57.294Z,98835.09
2023-05-18T01:47:23.840Z,98838.09
2023-05-18T01:49:50.090Z,98829.72
2023-05-18T01:52:16.355Z,98829.06
2023-05-18T01:54:42.585Z,98830.25
2023-05-18T01:57:09.548Z,98829.78
2023-05-18T01:59:35.882Z,98828.47
2023-05-18T02:02:02.141Z,98839.38
2023-05-18T02:04:28.396Z,98836.28
2023-05-18T02:06:54.654Z,98832.34
2023-05-18T02:09:21.017Z,98835.34
2023-05-18T02:11:47.246Z,98838.34
2023-05-18T02:14:13.540Z,98834.41
2023-05-18T02:16:40.050Z,98836.38
2023-05-18T02:19:06.393Z,98844.66
2023-05-18T02:21:32.691Z,98839.69
2023-05-18T02:23:58.954Z,98836.75
2023-05-18T02:26:25.555Z,98830.22
2023-05-18T02:28:51.832Z,98830.53
2023-05-18T02:31:18.161Z,98833.53
2023-05-18T02:33:44.625Z,98830.41
2023-05-18T02:36:10.910Z,98830.78
2023-05-18T02:38:37.174Z,98833.75
2023-05-18T02:41:03.510Z,98832.28
2023-05-18T02:43:29.850Z,98840.53
2023-05-18T02:45:56.867Z,98839.03
2023-05-18T02:48:23.185Z,98839.56
2023-05-18T02:50:49.544Z,98840.72
2023-05-18T02:53:15.861Z,98842.88
2023-05-18T02:55:42.150Z,98831.84
2023-05-18T02:58:08.443Z,98830.41
2023-05-18T03:00:34.812Z,98831.91
2023-05-18T03:03:01.546Z,98832.41
2023-05-18T03:05:28.080Z,98833.75
2023-05-18T03:07:54.523Z,98838.53
2023-05-18T03:10:21.155Z,98839.69
2023-05-18T03:12:47.451Z,98836.56
2023-05-18T03:15:13.759Z,98835.09
2023-05-18T03:17:40.220Z,98838.06
2023-05-18T03:20:06.601Z,98837.56
2023-05-18T03:22:32.894Z,98835.94
2023-05-18T03:24:59.205Z,98839.56
2023-05-18T03:27:25.569Z,98835.44
2023-05-18T03:29:51.956Z,98829.53
2023-05-18T03:32:18.457Z,98834.97
2023-05-18T03:34:45.090Z,98841.34
2023-05-18T03:37:11.501Z,98837.25
2023-05-18T03:39:37.775Z,98840.84
2023-05-18T03:42:04.038Z,98843.00
2023-05-18T03:44:30.467Z,98839.75
2023-05-18T03:46:56.727Z,98836.44
2023-05-18T03:49:22.976Z,98833.97
2023-05-18T03:51:49.362Z,98841.88
2023-05-18T03:54:15.682Z,98844.69
2023-05-18T03:56:41.954Z,98851.91
2023-05-18T03:59:08.542Z,98845.81
2023-05-18T04:01:34.905Z,98845.34
2023-05-18T04:04:01.825Z,98855.88
2023-05-18T04:06:28.117Z,98860.47
2023-05-18T04:08:54.548Z,98857.00
2023-05-18T04:11:20.834Z,98858.84
2023-05-18T04:13:47.376Z,98862.44
2023-05-18T04:16:13.792Z,98863.94
2023-05-18T04:18:40.255Z,98871.00
2023-05-18T04:21:06.602Z,98865.38
2023-05-18T04:23:33.088Z,98857.47
2023-05-18T04:25:59.363Z,98871.16
2023-05-18T04:28:25.985Z,98869.66
2023-05-18T04:30:52.407Z,98867.03
2023-05-18T04:33:18.770Z,98873.13
2023-05-18T04:35:45.144Z,98879.22
2023-05-18T04:38:11.542Z,98879.72
2023-05-18T04:40:37.894Z,98870.31
2023-05-18T04:43:04.278Z,98876.44
2023-05-18T04:45:30.744Z,98887.44
2023-05-18T04:47:57.236Z,98874.91
2023-05-18T04:50:23.688Z,98864.50
2023-05-18T04:52:50.234Z,98878.81
2023-05-18T04:55:16.550Z,98874.19
2023-05-18T04:57:42.818Z,98873.88
2023-05-18T05:00:09.079Z,98869.44
2023-05-18T05:02:35.420Z,98869.94
2023-05-18T05:05:01.746Z,98876.47
2023-05-18T05:07:28.033Z,98876.81
2023-05-18T05:09:54.569Z,98871.84
2023-05-18T05:12:21.020Z,98878.09
2023-05-18T05:14:47.292Z,98886.91
2023-05-18T05:17:13.660Z,98872.72
2023-05-18T05:19:40.116Z,98882.91
2023-05-18T05:22:06.402Z,98879.72
2023-05-18T05:24:32.692Z,98876.88
2023-05-18T05:26:59.138Z,98879.94
2023-05-18T05:29:25.484Z,98881.03
2023-05-18T05:31:51.848Z,98888.50
2023-05-18T05:34:18.113Z,98893.97
2023-05-18T05:36:44.443Z,98880.78
2023-05-18T05:39:10.691Z,98884.47
2023-05-18T05:41:37.087Z,98887.31
2023-05-18T05:44:03.418Z,98881.41
2023-05-18T05:46:29.798Z,98883.25
2023-05-18T05:48:56.621Z,98879.59
2023-05-18T05:51:23.035Z,98877.13
2023-05-18T05:53:49.376Z,98889.31
2023-05-18T05:56:15.738Z,98886.69
2023-05-18T05:58:42.066Z,98884.19
2023-05-18T06:01:08.353Z,98885.38
2023-05-18T06:03:36.154Z,98882.03
2023-05-18T06:06:02.595Z,98891.75
2023-05-18T06:08:28.851Z,98893.72
2023-05-18T06:10:55.104Z,98889.34
2023-05-18T06:13:21.354Z,98892.91
2023-05-18T06:15:47.755Z,98895.31
2023-05-18T06:18:14.191Z,98898.19
2023-05-18T06:20:40.640Z,98896.94
2023-05-18T06:23:06.976Z,98890.38
2023-05-18T06:25:33.397Z,98900.91
2023-05-18T06:27:59.828Z,98900.78
2023-05-18T06:30:26.145Z,98905.13
2023-05-18T06:32:52.736Z,98907.59
2023-05-18T06:35:19.217Z,98910.06
2023-05-18T06:37:47.058Z,98921.50
2023-05-18T06:40:13.588Z,98919.09
2023-05-18T06:42:39.885Z,98922.94
2023-05-18T06:45:06.448Z,98915.13
2023-05-18T06:47:32.803Z,98916.09
2023-05-18T06:49:59.070Z,98928.13
2023-05-18T06:52:27.038Z,98930.50
2023-05-18T06:54:53.655Z,98926.94
2023-05-18T06:57:20.038Z,98926.63
2023-05-18T06:59:46.844Z,98930.38
2023-05-18T07:02:13.124Z,98931.94
2023-05-18T07:04:39.442Z,98938.34
2023-05-18T07:07:05.744Z,98931.50
2023-05-18T07:09:32.041Z,98928.22
2023-05-18T07:11:58.408Z,98928.56
2023-05-18T07:14:24.780Z,98932.56
2023-05-18T07:16:51.077Z,98933.91
2023-05-18T07:19:17.420Z,98941.56
2023-05-18T07:21:43.869Z,98941.53
2023-05-18T07:24:10.306Z,98935.19
2023-05-18T07:26:36.554Z,98929.81
2023-05-18T07:29:02.826Z,98930.00
2023-05-18T07:31:29.136Z,98928.31
2023-05-18T07:33:55.448Z,98930.88
2023-05-18T07:36:21.688Z,98938.41
2023-05-18T07:38:47.901Z,98943.78
2023-05-18T07:41:14.273Z,98944.63
2023-05-18T07:43:40.728Z,98944.94
2023-05-18T07:46:07.172Z,98944.44
2023-05-18T07:48:33.486Z,98945.91
2023-05-18T07:50:59.752Z,98945.38
2023-05-18T07:53:26.096Z,98944.88
2023-05-18T07:55:52.408Z,98933.34
2023-05-18T07:58:18.796Z,98935.91
2023-05-18T08:00:45.077Z,98942.75
2023-05-18T08:03:11.629Z,98945.81
2023-05-18T08:05:38.129Z,98938.72
2023-05-18T08:08:06.587Z,98938.78
2023-05-18T08:10:33.351Z,98941.91
2023-05-18T08:12:59.710Z,98947.59
2023-05-18T08:15:26.027Z,98941.66
2023-05-18T08:17:52.410Z,98939.78
2023-05-18T08:20:18.731Z,98936.75
2023-05-18T08:22:44.998Z,98939.72
2023-05-18T08:25:11.359Z,98932.97
2023-05-18T08:27:37.766Z,98926.91
2023-05-18T08:30:04.426Z,98913.50
2023-05-18T08:32:31.089Z,98908.63
2023-05-18T08:34:57.450Z,98912.47
2023-05-18T08:37:23.793Z,98910.25
2023-05-18T08:39:50.052Z,98909.81
2023-05-18T08:42:16.364Z,98916.38
2023-05-18T08:44:42.832Z,98900.66
2023-05-18T08:47:09.150Z,98898.75
2023-05-18T08:49:35.656Z,98883.84
2023-05-18T08:52:01.923Z,98877.44
2023-05-18T08:54:28.263Z,98864.00
2023-05-18T08:56:54.532Z,98874.03
2023-05-18T08:59:20.815Z,98874.69
2023-05-18T09:01:47.225Z,98870.13
2023-05-18T09:04:13.696Z,98864.72
2023-05-18T09:06:40.090Z,98873.91
2023-05-18T09:09:06.560Z,98869.78
2023-05-18T09:11:32.952Z,98863.31
2023-05-18T09:13:59.354Z,98866.91
2023-05-18T09:16:25.744Z,98873.19
2023-05-18T09:18:52.076Z,98874.28
2023-05-18T09:21:18.436Z,98871.34
2023-05-18T09:23:44.749Z,98856.78
2023-05-18T09:26:11.477Z,98877.97
2023-05-18T09:28:37.802Z,98867.75
2023-05-18T09:31:04.127Z,98857.97
2023-05-18T09:33:30.606Z,98865.41
2023-05-18T09:35:56.991Z,98862.75
2023-05-18T09:38:23.377Z,98874.63
2023-05-18T09:40:49.684Z,98872.53
2023-05-18T09:43:15.970Z,98878.13
2023-05-18T09:45:42.374Z,98871.94
2023-05-18T09:48:08.721Z,98874.63
2023-05-18T09:50:35.175Z,98875.22
2023-05-18T09:53:01.770Z,98863.00
2023-05-18T09:55:28.056Z,98870.25
2023-05-18T09:57:54.404Z,98867.91
2023-05-18T10:00:22.271Z,98864.38
2023-05-18T10:02:50.105Z,98860.88
2023-05-18T10:05:16.646Z,98864.53
2023-05-18T10:07:42.960Z,98860.56
2023-05-18T10:10:09.551Z,98855.19
2023-05-18T10:12:35.899Z,98855.19
2023-05-18T10:15:02.189Z,98857.38
2023-05-18T10:17:28.577Z,98851.00
2023-05-18T10:19:54.898Z,98852.25
2023-05-18T10:22:21.192Z,98852.03
2023-05-18T10:24:47.522Z,98848.78
2023-05-18T10:27:13.885Z,98846.91
2023-05-18T10:29:40.230Z,98845.44
2023-05-18T10:32:07.918Z,98837.84
2023-05-18T10:34:34.498Z,98836.97
2023-05-18T10:37:00.845Z,98833.56
2023-05-18T10:39:29.174Z,98841.97
2023-05-18T10:41:55.549Z,98838.81
2023-05-18T10:44:21.912Z,98832.88
2023-05-18T10:46:48.265Z,98831.25
2023-05-18T10:49:16.160Z,98835.56
2023-05-18T10:51:43.281Z,98830.28
2023-05-18T10:54:09.745Z,98827.84
2023-05-18T10:56:36.170Z,98833.56
2023-05-18T10:59:02.702Z,98832.16
2023-05-18T11:01:29.113Z,98825.50
2023-05-18T11:03:55.494Z,98840.41
2023-05-18T11:06:21.754Z,98831.50
2023-05-18T11:08:48.127Z,98830.88
2023-05-18T11:11:16.491Z,98826.28
2023-05-18T11:13:44.494Z,98827.97
2023-05-18T11:16:10.959Z,98822.47
2023-05-18T11:18:38.451Z,98815.34
2023-05-18T11:21:04.744Z,98818.56
2023-05-18T11:23:31.124Z,98817.28
2023-05-18T11:25:57.383Z,98819.22
2023-05-18T11:28:23.633Z,98817.47
2023-05-18T11:30:49.943Z,98814.41
2023-05-18T11:33:16.448Z,98815.50
2023-05-18T11:35:45.379Z,98814.72
2023-05-18T11:38:11.870Z,98813.31
2023-05-18T11:40:38.139Z,98818.94
2023-05-18T11:43:04.417Z,98813.06
2023-05-18T11:45:30.689Z,98818.53
2023-05-18T11:47:57.015Z,98807.88
2023-05-18T11:50:23.550Z,98807.72
2023-05-18T11:52:49.814Z,98813.41
2023-05-18T11:55:16.190Z,98806.97
2023-05-18T11:57:42.473Z,98806.72
2023-05-18T12:00:08.756Z,98794.38
2023-05-18T12:02:35.144Z,98815.59
2023-05-18T12:05:01.508Z,98812.66
2023-05-18T12:07:27.807Z,98804.59
2023-05-18T12:09:54.098Z,98803.78
2023-05-18T12:12:20.543Z,98802.16
2023-05-18T12:14:46.982Z,98803.78
2023-05-18T12:17:13.290Z,98796.56
2023-05-18T12:19:39.673Z,98790.94
2023-05-18T12:22:05.966Z,98791.75
2023-05-18T12:24:32.232Z,98804.94
2023-05-18T12:26:58.491Z,98793.13
2023-05-18T12:29:24.760Z,98790.44
2023-05-18T12:31:51.045Z,98796.38
2023-05-18T12:34:17.331Z,98797.75
2023-05-18T12:36:43.652Z,98798.81
2023-05-18T12:39:10.324Z,98801.75
2023-05-18T12:41:37.938Z,98793.69
2023-05-18T12:44:04.249Z,98787.53
2023-05-18T12:46:30.619Z,98785.63
2023-05-18T12:48:56.901Z,98786.69
2023-05-18T12:51:23.258Z,98786.19
2023-05-18T12:53:49.580Z,98782.94
2023-05-18T12:56:15.954Z,98786.19
2023-05-18T12:58:42.262Z,98787.84
2023-05-18T13:01:08.631Z,98782.47
2023-05-18T13:03:35.060Z,98787.28
2023-05-18T13:06:01.526Z,98782.69
2023-05-18T13:08:28.365Z,98780.81
2023-05-18T13:11:05.094Z,98776.53
2023-05-18T13:13:38.806Z,98777.91
2023-05-18T13:16:05.128Z,98772.06
2023-05-18T13:18:31.463Z,98767.47
2023-05-18T13:20:57.836Z,98765.84
2023-05-18T13:23:24.193Z,98767.16
2023-05-18T13:25:50.724Z,98768.47
2023-05-18T13:28:17.079Z,98766.38
2023-05-18T13:30:43.500Z,98770.66
2023-05-18T13:33:09.966Z,98772.06
2023-05-18T13:35:36.351Z,98772.38
2023-05-18T13:38:02.680Z,98776.16
2023-05-18T13:40:29.050Z,98770.78
2023-05-18T13:42:55.370Z,98765.72
2023-05-18T13:45:21.656Z,98775.75
2023-05-18T13:47:48.102Z,98760.75
2023-05-18T13:50:14.547Z,98761.81
2023-05-18T13:52:41.008Z,98760.75
2023-05-18T13:55:07.362Z,98768.22
2023-05-18T13:57:33.794Z,98761.25
2023-05-18T14:00:00.213Z,98757.50
2023-05-18T14:02:26.991Z,98762.13
2023-05-18T14:04:53.324Z,98760.81
2023-05-18T14:07:19.756Z,98753.81
2023-05-18T14:09:46.146Z,98753.00
2023-05-18T14:12:12.461Z,98751.63
2023-05-18T14:14:38.901Z,98754.78
2023-05-18T14:17:05.253Z,98747.31
2023-05-18T14:19:31.641Z,98745.19
2023-05-18T14:21:57.905Z,98733.41
2023-05-18T14:24:24.186Z,98740.94
2023-05-18T14:26:50.444Z,98740.38
2023-05-18T14:29:16.897Z,98742.00
2023-05-18T14:31:43.239Z,98742.00
2023-05-18T14:34:09.634Z,98736.09
2023-05-18T14:36:36.105Z,98740.91
2023-05-18T14:39:02.922Z,98735.53
2023-05-18T14:41:29.307Z,98745.44
2023-05-18T14:43:55.697Z,98743.00
2023-05-18T14:46:22.191Z,98743.00
2023-05-18T14:48:48.740Z,98747.56
2023-05-18T14:51:15.155Z,98740.91
2023-05-18T14:53:41.525Z,98737.94
2023-05-18T14:56:07.877Z,98737.94
2023-05-18T14:58:34.347Z,98742.50
2023-05-18T15:01:00.710Z,98739.81
2023-05-18T15:03:28.350Z,98747.06
2023-05-18T15:05:54.958Z,98741.94
2023-05-18T15:08:21.322Z,98743.00
2023-05-18T15:10:47.765Z,98741.38
2023-05-18T15:13:14.197Z,98738.94
2023-05-18T15:15:40.558Z,98727.41
2023-05-18T15:18:06.980Z,98733.56
2023-05-18T15:20:33.552Z,98735.47
2023-05-18T15:23:00.074Z,98722.03
2023-05-18T15:25:26.497Z,98731.97
2023-05-18T15:27:52.843Z,98724.94
2023-05-18T15:30:19.134Z,98724.94
2023-05-18T15:32:45.490Z,98720.91
2023-05-18T15:35:11.830Z,98724.66
2023-05-18T15:37:38.170Z,98725.13
2023-05-18T15:40:04.479Z,98721.09
2023-05-18T15:42:30.839Z,98712.78
2023-05-18T15:44:57.133Z,98710.09
2023-05-18T15:47:23.447Z,98712.22
2023-05-18T15:49:49.861Z,98708.66
2023-05-18T15:52:16.256Z,98713.63
2023-05-18T15:54:42.742Z,98703.56
2023-05-18T15:57:09.219Z,98700.50
2023-05-18T15:59:35.580Z,98692.88
2023-05-18T16:02:01.839Z,98696.78
2023-05-18T16:04:28.092Z,98691.00
2023-05-18T16:06:54.334Z,98688.25
2023-05-18T16:09:20.562Z,98691.44
2023-05-18T16:11:46.824Z,98694.84
2023-05-18T16:14:13.113Z,98684.28
2023-05-18T16:16:39.452Z,98691.44
2023-05-18T16:19:05.772Z,98682.28
2023-05-18T16:21:32.135Z,98690.00
2023-05-18T16:23:58.417Z,98685.09
2023-05-18T16:26:24.663Z,98686.66
2023-05-18T16:28:50.888Z,98684.69
2023-05-18T16:31:17.217Z,98687.88
2023-05-18T16:33:43.581Z,98682.19
2023-05-18T16:36:09.938Z,98680.25
2023-05-18T16:38:36.239Z,98684.44
2023-05-18T16:41:03.267Z,98688.41
2023-05-18T16:43:29.722Z,98687.28
2023-05-18T16:45:56.115Z,98685.06
2023-05-18T16:48:22.510Z,98678.34
2023-05-18T16:50:49.013Z,98679.88
2023-05-18T16:53:15.367Z,98684.88
2023-05-18T16:55:41.688Z,98685.38
2023-05-18T16:58:07.993Z,98683.97
2023-05-18T17:00:34.460Z,98682.59
2023-05-18T17:03:01.033Z,98685.78
2023-05-18T17:05:27.458Z,98684.63
2023-05-18T17:07:53.848Z,98679.97
2023-05-18T17:10:20.149Z,98680.44
2023-05-18T17:12:46.518Z,98681.19
2023-05-18T17:15:12.811Z,98678.97
2023-05-18T17:17:40.016Z,98690.16
2023-05-18T17:20:08.196Z,98681.78
2023-05-18T17:22:34.499Z,98685.78
2023-05-18T17:25:00.818Z,98684.63
2023-05-18T17:27:27.107Z,98688.81
2023-05-18T17:29:53.375Z,98681.50
2023-05-18T17:32:19.693Z,98686.28
2023-05-18T17:34:46.373Z,98678.97
2023-05-18T17:37:12.715Z,98679.19
2023-05-18T17:39:39.005Z,98678.06
2023-05-18T17:42:05.389Z,98678.50
2023-05-18T17:44:31.685Z,98681.09
2023-05-18T17:46:58.052Z,98678.06
2023-05-18T17:49:24.411Z,98690.31
2023-05-18T17:51:50.733Z,98682.94
2023-05-18T17:54:17.026Z,98687.97
2023-05-18T17:56:43.358Z,98691.09
2023-05-18T17:59:09.655Z,98691.84
2023-05-18T18:01:36.015Z,98696.59
2023-05-18T18:04:02.448Z,98703.44
2023-05-18T18:06:28.733Z,98710.09
2023-05-18T18:08:55.102Z,98708.94
2023-05-18T18:11:21.477Z,98704.84
2023-05-18T18:13:47.786Z,98706.16
2023-05-18T18:16:14.151Z,98701.25
2023-05-18T18:18:40.613Z,98707.88
2023-05-18T18:21:07.043Z,98708.38
2023-05-18T18:23:33.448Z,98705.56
2023-05-18T18:26:00.550Z,98714.28
2023-05-18T18:28:27.403Z,98714.75
2023-05-18T18:30:53.833Z,98713.59
2023-05-18T18:33:20.130Z,98712.19
2023-05-18T18:35:46.898Z,98714.41
2023-05-18T18:38:17.976Z,98708.94
2023-05-18T18:40:46.151Z,98720.09
2023-05-18T18:43:13.379Z,98716.84
2023-05-18T18:45:40.626Z,98718.34
2023-05-18T18:48:08.112Z,98722.19
2023-05-18T18:50:35.276Z,98719.03
2023-05-18T18:53:01.833Z,98735.66
2023-05-18T18:55:28.866Z,98732.75
2023-05-18T18:58:01.339Z,98732.50
2023-05-18T19:00:32.815Z,98737.66
2023-05-18T19:03:02.061Z,98729.63
2023-05-18T19:05:32.224Z,98736.84
2023-05-18T19:08:01.869Z,98736.84
2023-05-18T19:10:28.376Z,98736.00
2023-05-18T19:12:54.624Z,98729.06
2023-05-18T19:15:20.930Z,98739.75
2023-05-18T19:17:47.250Z,98739.75
2023-05-18T19:20:13.527Z,98738.09
2023-05-18T19:22:39.853Z,98746.38
2023-05-18T19:25:06.657Z,98742.88
2023-05-18T19:27:32.970Z,98746.59
2023-05-18T19:30:01.654Z,98745.00
2023-05-18T19:32:28.892Z,98746.84
2023-05-18T19:34:55.296Z,98755.13
2023-05-18T19:37:21.602Z,98752.66
2023-05-18T19:39:47.939Z,98751.03
2023-05-18T19:42:14.297Z,98756.38
2023-05-18T19:44:40.670Z,98752.09
2023-05-18T19:47:07.035Z,98761.16
2023-05-18T19:49:33.316Z,98769.41
2023-05-18T19:51:59.677Z,98767.78
2023-05-18T19:54:26.027Z,98766.13
2023-05-18T19:56:52.485Z,98762.91
2023-05-18T19:59:18.989Z,98763.13
2023-05-18T20:01:45.286Z,98774.06
2023-05-18T20:04:11.707Z,98768.13
2023-05-18T20:06:38.077Z,98770.22
2023-05-18T20:09:04.419Z,98770.09
2023-05-18T20:11:30.778Z,98771.25
2023-05-18T20:13:57.105Z,98781.13
2023-05-18T20:16:23.637Z,98773.34
2023-05-18T20:18:50.034Z,98778.94
2023-05-18T20:21:16.375Z,98779.16
2023-05-18T20:23:42.890Z,98781.03
2023-05-18T20:26:09.209Z,98774.28
2023-05-18T20:28:35.561Z,98772.66
2023-05-18T20:31:02.193Z,98784.41
2023-05-18T20:33:28.602Z,98777.41
2023-05-18T20:35:54.938Z,98782.97
2023-05-18T20:38:21.366Z,98782.97
2023-05-18T20:40:47.661Z,98785.91
2023-05-18T20:43:14.022Z,98793.31
2023-05-18T20:45:40.325Z,98790.09
2023-05-18T20:48:06.733Z,98794.63
2023-05-18T20:50:33.385Z,98803.66
2023-05-18T20:52:59.876Z,98794.03
2023-05-18T20:55:26.163Z,98798.78
2023-05-18T20:57:52.577Z,98797.97
2023-05-18T21:00:18.916Z,98794.72
2023-05-18T21:02:45.383Z,98800.28
2023-05-18T21:05:11.765Z,98795.16
2023-05-18T21:07:38.115Z,98792.72
2023-05-18T21:10:04.376Z,98794.56
2023-05-18T21:12:30.682Z,98792.97
2023-05-18T21:14:57.004Z,98794.03
2023-05-18T21:17:23.312Z,98793.44
2023-05-18T21:19:49.610Z,98794.44
2023-05-18T21:22:15.925Z,98789.34
2023-05-18T21:24:42.380Z,98796.53
2023-05-18T21:27:08.734Z,98797.59
2023-05-18T21:29:35.028Z,98798.66
2023-05-18T21:32:01.380Z,98797.00
2023-05-18T21:34:27.805Z,98804.44
2023-05-18T21:36:54.193Z,98805.47
2023-05-18T21:39:20.508Z,98800.59
2023-05-18T21:41:46.943Z,98802.22
2023-05-18T21:44:13.272Z,98805.94
2023-05-18T21:46:39.583Z,98815.59
2023-05-18T21:49:05.881Z,98809.88
2023-05-18T21:51:32.209Z,98806.53
2023-05-18T21:53:58.543Z,98796.94
2023-05-18T21:56:24.960Z,98802.31
2023-05-18T21:58:51.310Z,98799.22
2023-05-18T22:01:17.740Z,98792.41
2023-05-18T22:03:44.102Z,98791.47
2023-05-18T22:06:10.409Z,98794.88
2023-05-18T22:08:36.727Z,98787.59
2023-05-18T22:11:03.027Z,98793.44
2023-05-18T22:13:29.294Z,98792.91
2023-05-18T22:15:55.573Z,98781.94
2023-05-18T22:18:25.087Z,98788.34
2023-05-18T22:20:51.474Z,98787.81
2023-05-18T22:23:17.779Z,98786.22
2023-05-18T22:25:44.106Z,98788.34
2023-05-18T22:28:10.379Z,98786.56
2023-05-18T22:30:36.643Z,98782.28
2023-05-18T22:33:03.080Z,98786.00
2023-05-18T22:35:29.389Z,98786.88
2023-05-18T22:37:55.752Z,98782.41
2023-05-18T22:40:22.321Z,98777.94
2023-05-18T22:42:48.561Z,98779.63
2023-05-18T22:45:14.977Z,98781.28
2023-05-18T22:47:41.470Z,98780.06
2023-05-18T22:50:08.092Z,98780.09
2023-05-18T22:52:35.092Z,98778.28
2023-05-18T22:55:01.550Z,98779.16
2023-05-18T22:57:30.986Z,98779.19
2023-05-18T22:59:57.364Z,98777.34
2023-05-18T23:02:23.656Z,98775.34
2023-05-18T23:04:49.989Z,98772.69
2023-05-18T23:07:16.387Z,98772.50
2023-05-18T23:09:42.689Z,98773.16
2023-05-18T23:12:09.199Z,98772.13
2023-05-18T23:14:35.515Z,98778.88
2023-05-18T23:17:02.356Z,98778.69
2023-05-18T23:19:28.650Z,98768.06
2023-05-18T23:21:54.982Z,98772.16
2023-05-18T23:24:21.357Z,98777.28
2023-05-18T23:26:47.837Z,98770.97
2023-05-18T23:29:15.359Z,98767.09
2023-05-18T23:31:41.779Z,98767.72
2023-05-18T23:34:08.121Z,98772.00
2023-05-18T23:36:34.416Z,98771.59
2023-05-18T23:39:00.731Z,98774.91
2023-05-18T23:41:27.358Z,98765.69
2023-05-18T23:43:53.654Z,98765.50
2023-05-18T23:46:20.088Z,98770.41
2023-05-18T23:48:46.387Z,98763.06
2023-05-18T23:51:12.685Z,98763.66
2023-05-18T23:53:38.997Z,98765.31
2023-05-18T23:56:05.263Z,98763.25
2023-05-18T23:58:31.604Z,98764.91
